QTR001|OTBD-EGLL|A346|IVAO

(1/4) > >>

lekale20:
Moi kaikielle!

Tällaista pikkuhaulia tuli lenneltyä, mutta ilman jaaritteluja suoraan asiaan...

ATS:
Code:

(FPL-QTR001-IS
-A346/H-SDGJPRWXYZ/S
-OTBD0930
-N0488F360 R659 ELOSA B457 BAH UL602 TASMI/N0487F360 UL602
ITBIT UM860 KABAN/N0487F360 UM860 KUGOS/K0900F360 UM860
ANEDO/N0483F360 UM860 NETED/K0894F360 UM860 INROG UL981
ABSON/K0895F380 UL981 DIBED/N0481F380 UL981 CZE UL980 RKN UP20 GORLO
UL980 LOGAN/0613
-EGLL0513 EGKK
-EET/OBBB0010 OKAC0036 ORBB0050 LTAA0153 UKFV0300 UKOV0325 LUUU0336
UKLV0355 EPWW0417 EDUU0502 EDVV0518 EHAA0538 EGTT0600 REG/A7AGC
SEL/FMAE OPR/QTR RMK/DAT/M NAV/TCAS P/TBN R/VE J/LF D/08 480
C/GREY A/WHITE AND GREY)


Code:

DOHA INTL [16, 34]
OTBD 030900Z 03008KT 4000 HZ NSC 35/28 Q0996 NOSIG

LONDON HEATHROW [09L, 09R, 27L, 27R]
EGLL 031350Z 23012KT 180V260 CAVOK 29/12 Q1014 NOSIG

LONDON GATWICK [08L, 08R, 26L, 26R]
EGKK 031350Z 22008KT 180V260 9999 FEW048 26/14 Q1014


Eiköhän mennä kuvien puolelle.


Pimeänä pääasematasolla, pahoittelut scenerystä (Ei löytynyt kuin AFCAD)
[ Attachment not found - or removed ]

Onhan toi A346 aikamoinen vempele
[ Attachment not found - or removed ]

Täytellään initiaalia...
[ Attachment not found - or removed ]

Ja vihdoinkin reitti saatu boxiin
[ Attachment not found - or removed ]

Valmiita käynnistämään ja työntämään.
[ Attachment not found - or removed ]

Ja kaikki neljä on tulilla...
[ Attachment not found - or removed ]

Rullausta kohti odotuspaikkaa kiitotie 16
[ Attachment not found - or removed ]

Ja kiitotiellä ollaan
[ Attachment not found - or removed ]

Lopultakin selviä lentoonlähtöön 
[ Attachment not found - or removed ]

Ilmassa, kohti korkeuksia
[ Attachment not found - or removed ]

Wingviewiä
[ Attachment not found - or removed ]

Tällaista onpi edessä, juuri läpäisty TA.
[ Attachment not found - or removed ]

Saavuteteean lentopintaa 360
[ Attachment not found - or removed ]

Lähi-itä jää taakse...
[ Attachment not found - or removed ]

Spotteri otti kivalla zoomilla kuvan maasta 
[ Attachment not found - or removed ]

Ohajaamosssa näyttää tällaiselta
[ Attachment not found - or removed ]

Steppiä ylöspäin
[ Attachment not found - or removed ]

Kaartelua Unkarin päällä
[ Attachment not found - or removed ]

Wingviewiä pinnoilla
[ Attachment not found - or removed ]

Iberian 747 tuli vastaan alempana Sakasn päällä
[ Attachment not found - or removed ]

TOD on ylitetty hiljattain ja laskeutuminen on aloittettu
[ Attachment not found - or removed ]

Finnair deppaili samoihin aikoihin ilmeisesti Lontoosta
[ Attachment not found - or removed ]

Käännellään suuntasäteeseen 27R
[ Attachment not found - or removed ]

Suuntasäde napattu 27R
[ Attachment not found - or removed ]

Finaalissa 
[ Attachment not found - or removed ]

Silkkiä sieltä tuli 
[ Attachment not found - or removed ]

Muitakin koneita oli liikenteessä
[ Attachment not found - or removed ]

Ja rullausta portille
[ Attachment not found - or removed ]

Matkalla tuli vastaan useita eri koneita
[ Attachment not found - or removed ]

Virgin 747
[ Attachment not found - or removed ]

Ilmakuvaa kentältä 
[ Attachment not found - or removed ]

Singaporen A380
[ Attachment not found - or removed ]

Vihdoinkin parkissa
[ Attachment not found - or removed ]

Kiitokset kaikille!
Komenttia, vinkkejä tms otetaan vastaan 

h-enri:
Hieno stoori taas kerran!

mato zxc:
Komeita kuvia jälleen leevillä  Onko sulla käytössä GEX Europe?

lekale20:
Quote

Komeita kuvia jälleen leevillä  Onko sulla käytössä GEX Europe?


Kiitokset!

Ei ole käytössä OFFTOPIC: Kumpi on parempi GEX Europe vai Ultimate terrain Europe?

OH-TDI:
Quote

Kiitokset!

Ei ole käytössä OFFTOPIC: Kumpi on parempi GEX Europe vai Ultimate terrain Europe?


Onhan ne ihan hiton tyylikkäitä!

Navigation

Up one level

Next page